sensor_id;sensor_type;location;lat;lon;timestamp;pressure;altitude;pressure_sealevel;temperature;humidity
78016;BME280;67223;51.102;5.882;2023-01-30T00:00:18;101859.03;;;3.29;82.72
78016;BME280;67223;51.102;5.882;2023-01-30T00:02:44;101869.59;;;3.29;83.54
78016;BME280;67223;51.102;5.882;2023-01-30T00:05:39;101857.88;;;3.37;83.45
78016;BME280;67223;51.102;5.882;2023-01-30T00:08:04;101869.19;;;3.41;84.04
78016;BME280;67223;51.102;5.882;2023-01-30T00:10:30;101861.22;;;3.42;84.03
78016;BME280;67223;51.102;5.882;2023-01-30T00:12:55;101846.00;;;3.49;83.45
78016;BME280;67223;51.102;5.882;2023-01-30T00:15:21;101850.34;;;3.52;83.47
78016;BME280;67223;51.102;5.882;2023-01-30T00:17:46;101839.81;;;3.50;83.57
78016;BME280;67223;51.102;5.882;2023-01-30T00:20:12;101836.09;;;3.56;83.35
78016;BME280;67223;51.102;5.882;2023-01-30T00:22:37;101829.00;;;3.58;83.68
78016;BME280;67223;51.102;5.882;2023-01-30T00:25:03;101839.31;;;3.64;83.29
78016;BME280;67223;51.102;5.882;2023-01-30T00:27:28;101834.78;;;3.67;83.50
78016;BME280;67223;51.102;5.882;2023-01-30T00:29:54;101835.53;;;3.71;83.35
78016;BME280;67223;51.102;5.882;2023-01-30T00:32:19;101823.13;;;3.73;83.67
78016;BME280;67223;51.102;5.882;2023-01-30T00:34:45;101807.16;;;3.76;82.92
78016;BME280;67223;51.102;5.882;2023-01-30T00:37:10;101808.16;;;3.73;83.50
78016;BME280;67223;51.102;5.882;2023-01-30T00:39:36;101808.06;;;3.75;83.41
78016;BME280;67223;51.102;5.882;2023-01-30T00:42:01;101799.00;;;3.82;83.05
78016;BME280;67223;51.102;5.882;2023-01-30T00:44:45;101782.28;;;3.81;83.63
78016;BME280;67223;51.102;5.882;2023-01-30T00:47:29;101787.41;;;3.86;83.53
78016;BME280;67223;51.102;5.882;2023-01-30T00:49:54;101767.31;;;3.82;83.42
78016;BME280;67223;51.102;5.882;2023-01-30T00:52:20;101770.81;;;3.82;83.16
78016;BME280;67223;51.102;5.882;2023-01-30T00:54:45;101775.00;;;3.88;83.33
78016;BME280;67223;51.102;5.882;2023-01-30T00:57:11;101772.19;;;3.93;83.09
78016;BME280;67223;51.102;5.882;2023-01-30T00:59:36;101778.19;;;3.96;83.30
78016;BME280;67223;51.102;5.882;2023-01-30T01:02:02;101771.31;;;3.92;83.76
78016;BME280;67223;51.102;5.882;2023-01-30T01:04:27;101776.41;;;3.97;83.17
78016;BME280;67223;51.102;5.882;2023-01-30T01:06:52;101773.72;;;3.98;83.35
78016;BME280;67223;51.102;5.882;2023-01-30T01:09:18;101773.78;;;3.97;83.37
78016;BME280;67223;51.102;5.882;2023-01-30T01:11:44;101766.03;;;3.92;83.49
78016;BME280;67223;51.102;5.882;2023-01-30T01:14:09;101749.19;;;3.95;84.00
78016;BME280;67223;51.102;5.882;2023-01-30T01:16:35;101751.63;;;3.99;83.33
78016;BME280;67223;51.102;5.882;2023-01-30T01:19:01;101772.78;;;3.99;84.10
78016;BME280;67223;51.102;5.882;2023-01-30T01:21:27;101761.25;;;4.02;83.45
78016;BME280;67223;51.102;5.882;2023-01-30T01:23:58;101760.38;;;4.01;83.63
78016;BME280;67223;51.102;5.882;2023-01-30T01:26:25;101773.41;;;4.06;83.59
78016;BME280;67223;51.102;5.882;2023-01-30T01:28:57;101755.72;;;4.08;84.06
78016;BME280;67223;51.102;5.882;2023-01-30T01:31:23;101759.28;;;4.07;83.88
78016;BME280;67223;51.102;5.882;2023-01-30T01:33:49;101757.41;;;4.09;84.20
78016;BME280;67223;51.102;5.882;2023-01-30T01:36:15;101768.81;;;4.11;83.81
78016;BME280;67223;51.102;5.882;2023-01-30T01:38:41;101762.66;;;4.10;84.50
78016;BME280;67223;51.102;5.882;2023-01-30T01:41:08;101756.44;;;4.11;83.89
78016;BME280;67223;51.102;5.882;2023-01-30T01:44:02;101758.28;;;4.09;84.29
78016;BME280;67223;51.102;5.882;2023-01-30T01:46:33;101790.81;;;4.11;84.03
78016;BME280;67223;51.102;5.882;2023-01-30T01:49:03;101767.94;;;4.10;84.23
78016;BME280;67223;51.102;5.882;2023-01-30T01:51:44;101763.53;;;4.11;84.61
78016;BME280;67223;51.102;5.882;2023-01-30T01:54:16;101760.75;;;4.14;84.47
78016;BME280;67223;51.102;5.882;2023-01-30T01:56:44;101765.19;;;4.13;84.29
78016;BME280;67223;51.102;5.882;2023-01-30T01:59:30;101770.34;;;4.16;84.54
78016;BME280;67223;51.102;5.882;2023-01-30T02:02:00;101748.28;;;4.17;84.83
78016;BME280;67223;51.102;5.882;2023-01-30T02:04:30;101738.63;;;4.16;84.61
78016;BME280;67223;51.102;5.882;2023-01-30T02:07:16;101740.41;;;4.16;85.30
78016;BME280;67223;51.102;5.882;2023-01-30T02:09:43;101739.50;;;4.17;84.91
78016;BME280;67223;51.102;5.882;2023-01-30T02:12:10;101727.06;;;4.19;85.26
78016;BME280;67223;51.102;5.882;2023-01-30T02:14:37;101723.44;;;4.21;84.87
78016;BME280;67223;51.102;5.882;2023-01-30T02:17:03;101733.28;;;4.18;85.42
78016;BME280;67223;51.102;5.882;2023-01-30T02:31:16;101677.84;;;4.16;85.50
78016;BME280;67223;51.102;5.882;2023-01-30T02:33:56;101683.13;;;4.16;85.84
78016;BME280;67223;51.102;5.882;2023-01-30T02:42:33;101658.47;;;4.16;86.08
78016;BME280;67223;51.102;5.882;2023-01-30T02:48:00;101651.91;;;4.24;85.25
78016;BME280;67223;51.102;5.882;2023-01-30T02:50:35;101651.91;;;4.24;86.61
78016;BME280;67223;51.102;5.882;2023-01-30T02:53:04;101650.19;;;4.23;86.05
78016;BME280;67223;51.102;5.882;2023-01-30T02:55:30;101650.09;;;4.26;86.16
78016;BME280;67223;51.102;5.882;2023-01-30T02:57:56;101646.38;;;4.30;85.52
78016;BME280;67223;51.102;5.882;2023-01-30T03:09:11;101640.63;;;4.41;85.08
78016;BME280;67223;51.102;5.882;2023-01-30T03:11:52;101644.91;;;4.44;85.69
78016;BME280;67223;51.102;5.882;2023-01-30T03:14:31;101640.38;;;4.47;85.04
78016;BME280;67223;51.102;5.882;2023-01-30T03:16:59;101630.66;;;4.48;85.94
78016;BME280;67223;51.102;5.882;2023-01-30T03:19:27;101632.19;;;4.53;85.65
78016;BME280;67223;51.102;5.882;2023-01-30T03:21:53;101622.53;;;4.52;85.30
78016;BME280;67223;51.102;5.882;2023-01-30T03:24:19;101627.72;;;4.54;85.38
78016;BME280;67223;51.102;5.882;2023-01-30T03:26:53;101623.91;;;4.61;84.61
78016;BME280;67223;51.102;5.882;2023-01-30T03:29:21;101627.25;;;4.64;84.69
78016;BME280;67223;51.102;5.882;2023-01-30T03:31:46;101633.56;;;4.62;85.44
78016;BME280;67223;51.102;5.882;2023-01-30T03:34:12;101621.91;;;4.66;85.26
78016;BME280;67223;51.102;5.882;2023-01-30T03:36:37;101612.31;;;4.63;85.29
78016;BME280;67223;51.102;5.882;2023-01-30T03:39:03;101628.06;;;4.66;85.42
78016;BME280;67223;51.102;5.882;2023-01-30T03:41:28;101621.75;;;4.69;85.52
78016;BME280;67223;51.102;5.882;2023-01-30T03:43:54;101608.69;;;4.66;85.74
78016;BME280;67223;51.102;5.882;2023-01-30T03:46:19;101607.69;;;4.68;85.86
78016;BME280;67223;51.102;5.882;2023-01-30T03:48:45;101604.19;;;4.68;86.14
78016;BME280;67223;51.102;5.882;2023-01-30T03:51:11;101600.75;;;4.66;86.52
78016;BME280;67223;51.102;5.882;2023-01-30T03:53:36;101620.72;;;4.73;85.93
78016;BME280;67223;51.102;5.882;2023-01-30T03:56:01;101616.22;;;4.75;86.29
78016;BME280;67223;51.102;5.882;2023-01-30T03:58:27;101614.38;;;4.77;86.76
78016;BME280;67223;51.102;5.882;2023-01-30T04:00:54;101615.94;;;4.81;86.31
78016;BME280;67223;51.102;5.882;2023-01-30T04:03:20;101610.66;;;4.81;86.17
78016;BME280;67223;51.102;5.882;2023-01-30T04:05:45;101592.06;;;4.83;86.17
78016;BME280;67223;51.102;5.882;2023-01-30T04:08:11;101590.28;;;4.83;86.09
78016;BME280;67223;51.102;5.882;2023-01-30T04:10:36;101593.75;;;4.84;86.21
78016;BME280;67223;51.102;5.882;2023-01-30T04:13:01;101586.56;;;4.87;86.52
78016;BME280;67223;51.102;5.882;2023-01-30T04:15:27;101585.81;;;4.84;86.44
78016;BME280;67223;51.102;5.882;2023-01-30T04:17:52;101592.72;;;4.88;85.92
78016;BME280;67223;51.102;5.882;2023-01-30T04:20:18;101593.75;;;4.84;87.19
78016;BME280;67223;51.102;5.882;2023-01-30T04:22:44;101581.47;;;4.83;87.29
78016;BME280;67223;51.102;5.882;2023-01-30T04:25:10;101572.03;;;4.77;88.51
78016;BME280;67223;51.102;5.882;2023-01-30T04:27:35;101580.03;;;4.75;88.33
78016;BME280;67223;51.102;5.882;2023-01-30T04:30:01;101577.44;;;4.74;89.14
78016;BME280;67223;51.102;5.882;2023-01-30T04:32:26;101565.94;;;4.75;89.27
78016;BME280;67223;51.102;5.882;2023-01-30T04:34:52;101568.78;;;4.70;89.22
78016;BME280;67223;51.102;5.882;2023-01-30T04:37:17;101581.97;;;4.72;89.87
78016;BME280;67223;51.102;5.882;2023-01-30T04:39:42;101568.84;;;4.69;89.59
78016;BME280;67223;51.102;5.882;2023-01-30T04:42:08;101562.69;;;4.68;90.10
78016;BME280;67223;51.102;5.882;2023-01-30T04:44:33;101551.28;;;4.68;89.76
78016;BME280;67223;51.102;5.882;2023-01-30T04:46:59;101552.34;;;4.64;91.11
78016;BME280;67223;51.102;5.882;2023-01-30T04:49:24;101562.84;;;4.65;91.13
78016;BME280;67223;51.102;5.882;2023-01-30T04:51:49;101560.91;;;4.69;90.96
78016;BME280;67223;51.102;5.882;2023-01-30T04:54:15;101567.06;;;4.69;90.84
78016;BME280;67223;51.102;5.882;2023-01-30T04:56:40;101552.13;;;4.68;90.57
78016;BME280;67223;51.102;5.882;2023-01-30T04:59:06;101557.22;;;4.73;90.44
78016;BME280;67223;51.102;5.882;2023-01-30T05:01:41;101570.47;;;4.73;90.74
78016;BME280;67223;51.102;5.882;2023-01-30T05:04:07;101566.84;;;4.74;90.77
78016;BME280;67223;51.102;5.882;2023-01-30T05:06:33;101572.16;;;4.74;90.48
78016;BME280;67223;51.102;5.882;2023-01-30T05:08:59;101564.31;;;4.72;90.90
78016;BME280;67223;51.102;5.882;2023-01-30T05:11:26;101583.53;;;4.76;90.91
78016;BME280;67223;51.102;5.882;2023-01-30T05:13:52;101579.97;;;4.77;90.57
78016;BME280;67223;51.102;5.882;2023-01-30T05:16:19;101584.41;;;4.76;91.24
78016;BME280;67223;51.102;5.882;2023-01-30T05:18:45;101581.53;;;4.81;90.13
78016;BME280;67223;51.102;5.882;2023-01-30T05:21:13;101578.75;;;4.84;90.40
78016;BME280;67223;51.102;5.882;2023-01-30T05:23:39;101585.00;;;4.83;90.40
78016;BME280;67223;51.102;5.882;2023-01-30T05:26:04;101572.47;;;4.87;90.40
78016;BME280;67223;51.102;5.882;2023-01-30T05:28:30;101579.38;;;4.89;90.03
78016;BME280;67223;51.102;5.882;2023-01-30T05:31:06;101574.69;;;4.96;90.53
78016;BME280;67223;51.102;5.882;2023-01-30T05:33:32;101587.75;;;4.99;89.46
78016;BME280;67223;51.102;5.882;2023-01-30T05:35:58;101586.91;;;4.98;89.91
78016;BME280;67223;51.102;5.882;2023-01-30T05:38:25;101589.47;;;5.00;89.96
78016;BME280;67223;51.102;5.882;2023-01-30T05:41:01;101590.50;;;4.97;89.97
78016;BME280;67223;51.102;5.882;2023-01-30T05:43:28;101577.97;;;5.01;91.06
78016;BME280;67223;51.102;5.882;2023-01-30T05:45:55;101566.31;;;5.05;90.66
78016;BME280;67223;51.102;5.882;2023-01-30T05:48:22;101573.38;;;5.04;90.84
78016;BME280;67223;51.102;5.882;2023-01-30T05:50:51;101551.34;;;5.04;91.43
78016;BME280;67223;51.102;5.882;2023-01-30T05:53:18;101579.41;;;5.08;91.33
78016;BME280;67223;51.102;5.882;2023-01-30T05:55:44;101577.47;;;5.11;90.85
78016;BME280;67223;51.102;5.882;2023-01-30T05:58:10;101576.47;;;5.14;90.76
78016;BME280;67223;51.102;5.882;2023-01-30T06:00:35;101569.31;;;5.16;90.85
78016;BME280;67223;51.102;5.882;2023-01-30T06:03:01;101568.28;;;5.18;91.14
78016;BME280;67223;51.102;5.882;2023-01-30T06:05:26;101562.88;;;5.22;90.93
78016;BME280;67223;51.102;5.882;2023-01-30T06:07:52;101562.66;;;5.26;91.07
78016;BME280;67223;51.102;5.882;2023-01-30T06:10:17;101560.72;;;5.30;90.99
78016;BME280;67223;51.102;5.882;2023-01-30T06:12:43;101564.28;;;5.29;91.38
78016;BME280;67223;51.102;5.882;2023-01-30T06:15:09;101569.44;;;5.32;91.53
78016;BME280;67223;51.102;5.882;2023-01-30T06:17:35;101564.00;;;5.35;91.64
78016;BME280;67223;51.102;5.882;2023-01-30T06:20:00;101579.75;;;5.38;91.83
78016;BME280;67223;51.102;5.882;2023-01-30T06:22:25;101591.91;;;5.42;91.99
78016;BME280;67223;51.102;5.882;2023-01-30T06:24:51;101576.03;;;5.42;91.85
78016;BME280;67223;51.102;5.882;2023-01-30T06:27:16;101577.53;;;5.47;91.87
78016;BME280;67223;51.102;5.882;2023-01-30T06:29:43;101588.66;;;5.54;91.78
78016;BME280;67223;51.102;5.882;2023-01-30T06:32:08;101585.78;;;5.58;91.47
78016;BME280;67223;51.102;5.882;2023-01-30T06:34:34;101586.66;;;5.59;91.68
78016;BME280;67223;51.102;5.882;2023-01-30T06:37:00;101592.34;;;5.69;91.03
78016;BME280;67223;51.102;5.882;2023-01-30T06:39:25;101577.41;;;5.68;91.19
78016;BME280;67223;51.102;5.882;2023-01-30T06:41:51;101596.66;;;5.71;91.32
78016;BME280;67223;51.102;5.882;2023-01-30T06:44:16;101580.47;;;5.77;91.21
78016;BME280;67223;51.102;5.882;2023-01-30T06:46:41;101597.22;;;5.78;91.13
78016;BME280;67223;51.102;5.882;2023-01-30T06:49:07;101600.00;;;5.75;91.36
78016;BME280;67223;51.102;5.882;2023-01-30T06:51:32;101607.81;;;5.78;91.01
78016;BME280;67223;51.102;5.882;2023-01-30T06:53:58;101599.72;;;5.81;91.05
78016;BME280;67223;51.102;5.882;2023-01-30T06:56:24;101601.50;;;5.80;90.92
78016;BME280;67223;51.102;5.882;2023-01-30T06:58:49;101597.28;;;5.76;90.98
78016;BME280;67223;51.102;5.882;2023-01-30T07:01:14;101596.03;;;5.83;90.52
78016;BME280;67223;51.102;5.882;2023-01-30T07:03:40;101593.53;;;5.80;90.92
78016;BME280;67223;51.102;5.882;2023-01-30T07:06:05;101604.78;;;5.85;90.89
78016;BME280;67223;51.102;5.882;2023-01-30T07:08:31;101609.16;;;5.86;90.52
78016;BME280;67223;51.102;5.882;2023-01-30T07:10:56;101610.91;;;5.87;90.04
78016;BME280;67223;51.102;5.882;2023-01-30T07:13:22;101616.91;;;5.91;90.35
78016;BME280;67223;51.102;5.882;2023-01-30T07:15:47;101610.91;;;6.04;89.39
78016;BME280;67223;51.102;5.882;2023-01-30T07:18:13;101599.84;;;5.96;89.93
78016;BME280;67223;51.102;5.882;2023-01-30T07:20:38;101594.44;;;5.98;89.67
78016;BME280;67223;51.102;5.882;2023-01-30T07:23:05;101595.31;;;5.98;89.51
78016;BME280;67223;51.102;5.882;2023-01-30T07:25:30;101597.97;;;5.98;89.42
78016;BME280;67223;51.102;5.882;2023-01-30T07:28:00;101598.06;;;5.97;89.43
78016;BME280;67223;51.102;5.882;2023-01-30T07:30:28;101597.25;;;5.95;89.25
78016;BME280;67223;51.102;5.882;2023-01-30T07:32:55;101618.31;;;5.98;88.86
78016;BME280;67223;51.102;5.882;2023-01-30T07:35:22;101636.22;;;5.93;89.03
78016;BME280;67223;51.102;5.882;2023-01-30T07:37:49;101632.41;;;5.98;89.21
78016;BME280;67223;51.102;5.882;2023-01-30T07:40:15;101634.31;;;6.14;86.94
78016;BME280;67223;51.102;5.882;2023-01-30T07:42:41;101640.56;;;6.13;87.45
78016;BME280;67223;51.102;5.882;2023-01-30T07:45:07;101644.69;;;6.18;86.68
78016;BME280;67223;51.102;5.882;2023-01-30T07:47:33;101636.31;;;6.09;87.18
78016;BME280;67223;51.102;5.882;2023-01-30T07:49:58;101635.16;;;6.14;86.23
78016;BME280;67223;51.102;5.882;2023-01-30T07:52:23;101642.59;;;6.08;86.72
78016;BME280;67223;51.102;5.882;2023-01-30T07:54:49;101643.22;;;6.13;85.83
78016;BME280;67223;51.102;5.882;2023-01-30T07:57:14;101642.59;;;6.08;85.59
78016;BME280;67223;51.102;5.882;2023-01-30T07:59:40;101653.66;;;6.16;84.22
78016;BME280;67223;51.102;5.882;2023-01-30T08:02:07;101641.78;;;6.05;84.55
78016;BME280;67223;51.102;5.882;2023-01-30T08:04:33;101658.56;;;6.06;83.88
78016;BME280;67223;51.102;5.882;2023-01-30T08:06:58;101653.25;;;6.06;83.80
78016;BME280;67223;51.102;5.882;2023-01-30T08:09:24;101645.16;;;6.09;82.77
78016;BME280;67223;51.102;5.882;2023-01-30T08:11:49;101648.97;;;6.03;83.02
78016;BME280;67223;51.102;5.882;2023-01-30T08:14:14;101644.91;;;5.96;83.37
78016;BME280;67223;51.102;5.882;2023-01-30T08:16:40;101648.97;;;6.03;81.67
78016;BME280;67223;51.102;5.882;2023-01-30T08:19:06;101646.94;;;5.91;82.74
78016;BME280;67223;51.102;5.882;2023-01-30T08:21:31;101647.69;;;5.93;81.82
78016;BME280;67223;51.102;5.882;2023-01-30T08:23:57;101643.53;;;5.88;82.44
78016;BME280;67223;51.102;5.882;2023-01-30T08:26:22;101651.19;;;5.94;81.28
78016;BME280;67223;51.102;5.882;2023-01-30T08:28:48;101654.72;;;5.94;81.69
78016;BME280;67223;51.102;5.882;2023-01-30T08:31:14;101655.59;;;5.95;81.00
78016;BME280;67223;51.102;5.882;2023-01-30T08:33:40;101658.28;;;5.93;81.71
78016;BME280;67223;51.102;5.882;2023-01-30T08:36:05;101666.13;;;5.96;81.77
78016;BME280;67223;51.102;5.882;2023-01-30T08:38:31;101666.88;;;5.98;81.79
78016;BME280;67223;51.102;5.882;2023-01-30T08:40:57;101688.88;;;6.00;81.70
78016;BME280;67223;51.102;5.882;2023-01-30T08:43:23;101678.91;;;6.05;81.10
78016;BME280;67223;51.102;5.882;2023-01-30T08:45:52;101676.91;;;6.11;81.03
78016;BME280;67223;51.102;5.882;2023-01-30T08:48:17;101686.47;;;6.13;80.28
78016;BME280;67223;51.102;5.882;2023-01-30T08:50:43;101680.19;;;6.16;80.62
78016;BME280;67223;51.102;5.882;2023-01-30T08:53:08;101679.72;;;6.25;79.53
78016;BME280;67223;51.102;5.882;2023-01-30T08:55:34;101691.13;;;6.27;79.40
78016;BME280;67223;51.102;5.882;2023-01-30T08:58:00;101698.91;;;6.30;79.38
78016;BME280;67223;51.102;5.882;2023-01-30T09:00:26;101699.84;;;6.29;79.26
78016;BME280;67223;51.102;5.882;2023-01-30T09:02:54;101705.00;;;6.32;78.85
78016;BME280;67223;51.102;5.882;2023-01-30T09:05:21;101708.28;;;6.37;77.96
78016;BME280;67223;51.102;5.882;2023-01-30T09:07:46;101709.16;;;6.37;78.13
78016;BME280;67223;51.102;5.882;2023-01-30T09:10:12;101699.31;;;6.39;78.21
78016;BME280;67223;51.102;5.882;2023-01-30T09:12:37;101704.69;;;6.38;78.12
78016;BME280;67223;51.102;5.882;2023-01-30T09:15:03;101703.63;;;6.42;76.86
78016;BME280;67223;51.102;5.882;2023-01-30T09:17:29;101712.22;;;6.47;77.10
78016;BME280;67223;51.102;5.882;2023-01-30T09:19:54;101709.31;;;6.52;75.83
78016;BME280;67223;51.102;5.882;2023-01-30T09:22:21;101702.06;;;6.55;75.91
78016;BME280;67223;51.102;5.882;2023-01-30T09:24:49;101713.47;;;6.57;75.79
78016;BME280;67223;51.102;5.882;2023-01-30T09:27:15;101727.34;;;6.62;75.90
78016;BME280;67223;51.102;5.882;2023-01-30T09:29:40;101722.06;;;6.62;75.17
78016;BME280;67223;51.102;5.882;2023-01-30T09:32:06;101720.78;;;6.69;74.56
78016;BME280;67223;51.102;5.882;2023-01-30T09:34:31;101720.66;;;6.72;74.86
78016;BME280;67223;51.102;5.882;2023-01-30T09:36:57;101737.34;;;6.74;74.24
78016;BME280;67223;51.102;5.882;2023-01-30T09:39:27;101725.63;;;6.78;74.65
78016;BME280;67223;51.102;5.882;2023-01-30T09:47:11;101749.50;;;6.78;73.06
78016;BME280;67223;51.102;5.882;2023-01-30T09:52:29;101742.88;;;6.70;73.98
78016;BME280;67223;51.102;5.882;2023-01-30T09:55:17;101751.00;;;6.84;73.04
78016;BME280;67223;51.102;5.882;2023-01-30T09:57:45;101757.97;;;6.86;72.97
78016;BME280;67223;51.102;5.882;2023-01-30T10:05:39;101750.75;;;6.88;72.71
78016;BME280;67223;51.102;5.882;2023-01-30T10:11:32;101751.84;;;7.02;71.33
78016;BME280;67223;51.102;5.882;2023-01-30T10:28:18;101763.19;;;7.38;68.34
78016;BME280;67223;51.102;5.882;2023-01-30T10:30:44;101770.84;;;7.44;68.52
78016;BME280;67223;51.102;5.882;2023-01-30T10:33:57;101780.22;;;7.34;69.11
78016;BME280;67223;51.102;5.882;2023-01-30T10:38:58;101772.69;;;7.26;69.90
78016;BME280;67223;51.102;5.882;2023-01-30T10:41:44;101779.47;;;7.32;67.71
78016;BME280;67223;51.102;5.882;2023-01-30T10:44:15;101779.63;;;7.29;65.77
78016;BME280;67223;51.102;5.882;2023-01-30T10:49:49;101762.81;;;7.28;66.21
78016;BME280;67223;51.102;5.882;2023-01-30T10:55:10;101783.38;;;7.25;65.07
78016;BME280;67223;51.102;5.882;2023-01-30T10:58:04;101777.28;;;7.23;65.65
78016;BME280;67223;51.102;5.882;2023-01-30T11:00:42;101784.47;;;7.21;66.15
78016;BME280;67223;51.102;5.882;2023-01-30T11:05:48;101786.34;;;7.19;65.93
78016;BME280;67223;51.102;5.882;2023-01-30T11:08:24;101785.66;;;7.15;66.15
78016;BME280;67223;51.102;5.882;2023-01-30T11:10:52;101786.41;;;7.17;65.00
78016;BME280;67223;51.102;5.882;2023-01-30T11:13:18;101770.59;;;7.16;65.21
78016;BME280;67223;51.102;5.882;2023-01-30T11:15:47;101775.03;;;7.15;65.82
78016;BME280;67223;51.102;5.882;2023-01-30T11:18:15;101770.59;;;7.16;66.69
78016;BME280;67223;51.102;5.882;2023-01-30T11:20:44;101780.41;;;7.14;66.40
78016;BME280;67223;51.102;5.882;2023-01-30T11:23:34;101784.00;;;7.13;65.63
78016;BME280;67223;51.102;5.882;2023-01-30T11:26:02;101784.00;;;7.13;65.75
78016;BME280;67223;51.102;5.882;2023-01-30T11:28:34;101791.03;;;7.14;65.41
78016;BME280;67223;51.102;5.882;2023-01-30T11:31:00;101791.97;;;7.13;64.59
78016;BME280;67223;51.102;5.882;2023-01-30T11:33:35;101784.09;;;7.11;64.86
78016;BME280;67223;51.102;5.882;2023-01-30T11:36:04;101784.19;;;7.10;65.15
78016;BME280;67223;51.102;5.882;2023-01-30T11:38:32;101794.09;;;7.06;65.76
78016;BME280;67223;51.102;5.882;2023-01-30T11:43:37;101787.94;;;7.06;65.59
78016;BME280;67223;51.102;5.882;2023-01-30T11:46:06;101790.59;;;7.06;65.87
78016;BME280;67223;51.102;5.882;2023-01-30T11:48:33;101797.53;;;7.08;64.45
78016;BME280;67223;51.102;5.882;2023-01-30T11:51:04;101794.19;;;7.05;65.46
78016;BME280;67223;51.102;5.882;2023-01-30T11:53:39;101793.06;;;7.09;64.68
78016;BME280;67223;51.102;5.882;2023-01-30T11:56:14;101798.50;;;7.07;63.97
78016;BME280;67223;51.102;5.882;2023-01-30T11:58:42;101795.72;;;7.09;64.01
78016;BME280;67223;51.102;5.882;2023-01-30T12:01:13;101791.97;;;7.13;64.13
78016;BME280;67223;51.102;5.882;2023-01-30T12:03:50;101792.06;;;7.11;63.94
78016;BME280;67223;51.102;5.882;2023-01-30T12:06:33;101793.69;;;7.14;62.88
78016;BME280;67223;51.102;5.882;2023-01-30T12:08:59;101786.66;;;7.13;63.42
78016;BME280;67223;51.102;5.882;2023-01-30T12:11:26;101797.28;;;7.13;62.53
78016;BME280;67223;51.102;5.882;2023-01-30T12:20:27;101809.72;;;7.12;62.71
78016;BME280;67223;51.102;5.882;2023-01-30T12:22:57;101810.44;;;7.16;63.70
78016;BME280;67223;51.102;5.882;2023-01-30T12:25:26;101806.72;;;7.18;64.05
78016;BME280;67223;51.102;5.882;2023-01-30T12:28:10;101804.81;;;7.22;63.75
78016;BME280;67223;51.102;5.882;2023-01-30T12:30:47;101796.66;;;7.25;64.05
78016;BME280;67223;51.102;5.882;2023-01-30T12:33:14;101799.63;;;7.19;64.03
78016;BME280;67223;51.102;5.882;2023-01-30T12:46:52;101798.69;;;7.20;62.39
78016;BME280;67223;51.102;5.882;2023-01-30T12:50:00;101809.31;;;7.20;61.76
78016;BME280;67223;51.102;5.882;2023-01-30T12:52:45;101785.41;;;7.20;63.04
78016;BME280;67223;51.102;5.882;2023-01-30T12:58:38;101795.97;;;7.21;63.53
78016;BME280;67223;51.102;5.882;2023-01-30T13:12:06;101811.47;;;7.46;62.19
78016;BME280;67223;51.102;5.882;2023-01-30T13:14:48;101813.53;;;7.41;61.27
78016;BME280;67223;51.102;5.882;2023-01-30T13:17:31;101806.84;;;7.50;61.03
78016;BME280;67223;51.102;5.882;2023-01-30T13:20:07;101820.06;;;7.51;60.85
78016;BME280;67223;51.102;5.882;2023-01-30T13:23:01;101816.63;;;7.49;60.90
78016;BME280;67223;51.102;5.882;2023-01-30T13:28:10;101844.75;;;7.53;61.89
78016;BME280;67223;51.102;5.882;2023-01-30T13:30:38;101843.44;;;7.45;62.13
78016;BME280;67223;51.102;5.882;2023-01-30T13:33:10;101835.97;;;7.35;62.62
78016;BME280;67223;51.102;5.882;2023-01-30T13:35:44;101847.13;;;7.42;62.51
78016;BME280;67223;51.102;5.882;2023-01-30T13:38:25;101848.13;;;7.40;61.98
78016;BME280;67223;51.102;5.882;2023-01-30T13:40:55;101850.19;;;7.34;61.93
78016;BME280;67223;51.102;5.882;2023-01-30T13:43:39;101852.22;;;7.29;62.46
78016;BME280;67223;51.102;5.882;2023-01-30T13:46:09;101863.94;;;7.25;63.00
78016;BME280;67223;51.102;5.882;2023-01-30T14:09:51;101900.50;;;7.20;63.71
78016;BME280;67223;51.102;5.882;2023-01-30T14:12:27;101913.09;;;8.17;60.85
78016;BME280;67223;51.102;5.882;2023-01-30T14:17:56;101918.09;;;7.40;63.46
78016;BME280;67223;51.102;5.882;2023-01-30T14:20:22;101914.19;;;7.30;63.88
78016;BME280;67223;51.102;5.882;2023-01-30T14:22:54;101920.59;;;7.26;64.05
78016;BME280;67223;51.102;5.882;2023-01-30T14:30:48;101923.72;;;7.17;62.89
78016;BME280;67223;51.102;5.882;2023-01-30T14:35:47;101939.88;;;7.12;nan
78016;BME280;67223;51.102;5.882;2023-01-30T14:38:16;101945.09;;;7.14;63.05
78016;BME280;67223;51.102;5.882;2023-01-30T14:40:45;101947.63;;;7.17;62.49
78016;BME280;67223;51.102;5.882;2023-01-30T14:46:10;101960.56;;;7.23;62.69
78016;BME280;67223;51.102;5.882;2023-01-30T14:56:15;101972.81;;;7.27;63.07
78016;BME280;67223;51.102;5.882;2023-01-30T14:59:00;101971.19;;;7.23;63.18
78016;BME280;67223;51.102;5.882;2023-01-30T15:01:26;101980.91;;;7.24;63.49
78016;BME280;67223;51.102;5.882;2023-01-30T15:03:51;101984.34;;;7.26;63.05
78016;BME280;67223;51.102;5.882;2023-01-30T15:06:17;101990.53;;;7.26;62.97
78016;BME280;67223;51.102;5.882;2023-01-30T15:08:44;101982.63;;;7.25;64.07
78016;BME280;67223;51.102;5.882;2023-01-30T15:11:15;101997.00;;;7.21;63.70
78016;BME280;67223;51.102;5.882;2023-01-30T15:14:05;102001.53;;;7.19;63.19
78016;BME280;67223;51.102;5.882;2023-01-30T15:19:31;102011.38;;;7.17;63.56
78016;BME280;67223;51.102;5.882;2023-01-30T15:22:15;102008.72;;;7.17;62.96
78016;BME280;67223;51.102;5.882;2023-01-30T15:25:00;102022.13;;;7.14;63.93
78016;BME280;67223;51.102;5.882;2023-01-30T15:30:20;102032.91;;;7.11;63.14
78016;BME280;67223;51.102;5.882;2023-01-30T15:32:48;102029.47;;;7.09;62.83
78016;BME280;67223;51.102;5.882;2023-01-30T15:35:27;102024.38;;;7.04;63.27
78016;BME280;67223;51.102;5.882;2023-01-30T15:37:54;102032.28;;;7.06;63.66
78016;BME280;67223;51.102;5.882;2023-01-30T15:40:24;102044.84;;;7.02;63.68
78016;BME280;67223;51.102;5.882;2023-01-30T15:45:32;102045.63;;;7.04;63.16
78016;BME280;67223;51.102;5.882;2023-01-30T15:50:38;102053.59;;;7.04;62.84